This is the latest recevied weather packets stored in our database for station/object OE6CUD-6. If no packets are shown the sender has not sent any weather packets the latest 10 day(s).
| Time | Temp. | Humidity | Pressure | Rain* | Wind** | Luminosity | Snow |
|---|---|---|---|---|---|---|---|
| 1777216841 | 20° C | 51% | 1018.6 hPa | 0 mm | - | 381 W/m² | - |
| 1777215939 | 20° C | 50% | 1018.6 hPa | 0 mm | - | 422 W/m² | - |
| 1777215331 | 20.56° C | 51% | 1018.7 hPa | 0 mm | - | 455 W/m² | - |
| 1777215032 | 20.56° C | 50% | 1018.6 hPa | 0 mm | - | 468 W/m² | - |
| 1777214130 | 20.56° C | 50% | 1018.4 hPa | 0 mm | - | 461 W/m² | - |
| 1777213830 | 20.56° C | 50% | 1018.4 hPa | 0 mm | - | 501 W/m² | - |
| 1777213229 | 21.11° C | 51% | 1018.3 hPa | 0 mm | - | 429 W/m² | - |
| 1777212923 | 20.56° C | 50% | 1018.3 hPa | 0 mm | - | 559 W/m² | - |
| 1777208966 | 22.22° C | 47% | 1018 hPa | 0 mm | - | 684 W/m² | - |
| 1777207923 | 25.56° C | 40% | 1018.1 hPa | 0 mm | - | 712 W/m² | - |
| 1777206720 | 26.67° C | 35% | 1017.8 hPa | 0 mm | - | 756 W/m² | - |
| 1777205956 | 25.56° C | 33% | 1017.8 hPa | 0 mm | - | 772 W/m² | - |
| 1777204150 | 25° C | 35% | 1017.7 hPa | 0 mm | - | 791 W/m² | - |
| 1777201430 | 24.44° C | 34% | 1018 hPa | 0 mm | - | 810 W/m² | - |
| 1777199626 | 23.89° C | 34% | 1018 hPa | 0 mm | - | 621 W/m² | - |
| 1777197218 | 23.89° C | 34% | 1018.1 hPa | 0 mm | - | 768 W/m² | - |
| 1777197072 | 23.33° C | 35% | 1018 hPa | 0 mm | - | 766 W/m² | - |
| 1777194199 | 22.78° C | 36% | 1017.7 hPa | 0 mm | - | 712 W/m² | - |
| 1777193297 | 22.78° C | 37% | 1017.8 hPa | 0 mm | - | 689 W/m² | - |
| 1777193000 | 22.78° C | 36% | 1017.7 hPa | 0 mm | - | 671 W/m² | - |
| 1777192693 | 22.78° C | 37% | 1017.8 hPa | 0 mm | - | 84 W/m² | - |
| 1777192397 | 22.22° C | 42% | 1017.5 hPa | 0 mm | - | 527 W/m² | - |
| 1777189982 | 20.56° C | 43% | 1017.2 hPa | 0 mm | - | 473 W/m² | - |
| 1777189053 | 20.56° C | 45% | 1017 hPa | 0 mm | - | 420 W/m² | - |
| 1777188751 | 20.56° C | 47% | 1017.1 hPa | 0 mm | - | 410 W/m² | - |
* Rain latest hour (hover to see other rain measurements)
** Current wind speed in m/s (hover to see current wind gust speed)